Time,TemperatureF,DewpointF,PressureIn,WindDirection,WindDirectionDegrees,WindSpeedMPH,WindSpeedGustMPH,Humidity,HourlyPrecipIn,Conditions,Clouds,dailyrainin,SoftwareType,DateUTC
2013-03-20 00:02:00,56.0,21.0,-100.00,North,-999,-999.0,-999.0,24,-99.99,,,-99.99,,2013-03-20 07:02:00,
2013-03-20 00:11:00,54.0,20.0,-100.00,North,-999,-999.0,-999.0,26,-99.99,,,-99.99,,2013-03-20 07:11:00,
2013-03-20 00:22:00,54.0,20.0,-100.00,North,-999,-999.0,-999.0,26,-99.99,,,-99.99,,2013-03-20 07:22:00,
2013-03-20 00:32:00,54.0,20.0,-100.00,North,-999,-999.0,-999.0,26,-99.99,,,-99.99,,2013-03-20 07:32:00,
2013-03-20 00:42:00,53.0,21.0,-100.00,North,-999,-999.0,-999.0,28,-99.99,,,-99.99,,2013-03-20 07:42:00,
2013-03-20 00:52:00,53.0,21.0,-100.00,North,-999,-999.0,-999.0,28,-99.99,,,-99.99,,2013-03-20 07:52:00,
2013-03-20 01:02:00,53.0,21.0,-100.00,North,-999,-999.0,-999.0,28,-99.99,,,-99.99,,2013-03-20 08:02:00,
2013-03-20 01:12:00,53.0,23.0,-100.00,North,-999,-999.0,-999.0,30,-99.99,,,-99.99,,2013-03-20 08:12:00,
2013-03-20 01:22:00,53.0,23.0,-100.00,North,-999,-999.0,-999.0,30,-99.99,,,-99.99,,2013-03-20 08:22:00,
2013-03-20 01:32:00,53.0,23.0,-100.00,North,-999,-999.0,-999.0,30,-99.99,,,-99.99,,2013-03-20 08:32:00,
2013-03-20 01:42:00,53.0,21.0,-100.00,North,-999,-999.0,-999.0,27,-99.99,,,-99.99,,2013-03-20 08:42:00,
2013-03-20 01:52:00,-999.0,-99.9,-100.00,East,101,1.0,-999.0,-999,-99.99,,,-99.99,,2013-03-20 08:52:00,
2013-03-20 02:02:00,-999.0,-99.9,-100.00,East,101,1.0,-999.0,-999,-99.99,,,-99.99,,2013-03-20 09:02:00,
2013-03-20 02:11:00,52.0,23.0,-100.00,North,-999,-999.0,-999.0,31,-99.99,,,-99.99,,2013-03-20 09:11:00,
2013-03-20 02:22:00,52.0,23.0,-100.00,North,-999,-999.0,-999.0,31,-99.99,,,-99.99,,2013-03-20 09:22:00,
2013-03-20 02:32:00,52.0,23.0,-100.00,North,-999,-999.0,-999.0,31,-99.99,,,-99.99,,2013-03-20 09:32:00,
2013-03-20 02:43:00,-999.0,-99.9,-100.00,WSW,247,1.0,-999.0,-999,-99.99,,,-99.99,,2013-03-20 09:43:00,
2013-03-20 02:53:00,-999.0,-99.9,-100.00,WSW,247,1.0,-999.0,-999,-99.99,,,-99.99,,2013-03-20 09:53:00,
2013-03-20 03:03:00,51.0,24.0,-100.00,North,-999,-999.0,-999.0,34,-99.99,,,-99.99,,2013-03-20 10:03:00,
2013-03-20 03:12:00,51.0,24.0,-100.00,North,-999,-999.0,-999.0,34,-99.99,,,-99.99,,2013-03-20 10:12:00,
2013-03-20 03:22:00,51.0,24.0,-100.00,North,-999,-999.0,-999.0,34,-99.99,,,-99.99,,2013-03-20 10:22:00,
2013-03-20 03:32:00,55.0,20.0,-100.00,North,-999,-999.0,-999.0,25,-99.99,,,-99.99,,2013-03-20 10:32:00,
2013-03-20 03:42:00,55.0,20.0,-100.00,North,-999,-999.0,-999.0,25,-99.99,,,-99.99,,2013-03-20 10:42:00,
2013-03-20 03:53:00,55.0,20.0,-100.00,North,-999,-999.0,-999.0,25,-99.99,,,-99.99,,2013-03-20 10:53:00,
2013-03-20 04:02:00,54.0,21.0,-100.00,North,-999,-999.0,-999.0,26,-99.99,,,-99.99,,2013-03-20 11:02:00,
2013-03-20 04:12:00,54.0,21.0,-100.00,North,-999,-999.0,-999.0,26,-99.99,,,-99.99,,2013-03-20 11:12:00,
2013-03-20 04:23:00,-999.0,-99.9,-100.00,SW,236,1.0,-999.0,-999,-99.99,,,-99.99,,2013-03-20 11:23:00,
2013-03-20 04:32:00,54.0,22.0,-100.00,North,-999,-999.0,-999.0,27,-99.99,,,-99.99,,2013-03-20 11:32:00,
2013-03-20 04:42:00,54.0,22.0,-100.00,North,-999,-999.0,-999.0,27,-99.99,,,-99.99,,2013-03-20 11:42:00,
2013-03-20 04:52:00,54.0,22.0,-100.00,North,-999,-999.0,-999.0,27,-99.99,,,-99.99,,2013-03-20 11:52:00,
2013-03-20 05:02:00,52.0,23.0,-100.00,North,-999,-999.0,-999.0,33,-99.99,,,-99.99,,2013-03-20 12:02:00,
2013-03-20 05:12:00,52.0,23.0,-100.00,North,-999,-999.0,-999.0,33,-99.99,,,-99.99,,2013-03-20 12:12:00,
2013-03-20 05:22:00,52.0,23.0,-100.00,North,-999,-999.0,-999.0,33,-99.99,,,-99.99,,2013-03-20 12:22:00,
2013-03-20 05:32:00,54.0,22.0,-100.00,North,-999,-999.0,-999.0,28,-99.99,,,-99.99,,2013-03-20 12:32:00,
2013-03-20 05:42:00,54.0,22.0,-100.00,North,-999,-999.0,-999.0,28,-99.99,,,-99.99,,2013-03-20 12:42:00,
2013-03-20 05:52:00,54.0,22.0,-100.00,North,-999,-999.0,-999.0,28,-99.99,,,-99.99,,2013-03-20 12:52:00,
2013-03-20 06:03:00,52.0,-99.9,-100.00,North,-999,-999.0,-999.0,-999,-99.99,,,-99.99,,2013-03-20 13:03:00,
2013-03-20 06:13:00,52.0,-99.9,-100.00,North,-999,-999.0,-999.0,-999,-99.99,,,-99.99,,2013-03-20 13:13:00,
2013-03-20 06:22:00,-999.0,-99.9,-100.00,SSE,168,2.0,-999.0,-999,-99.99,,,-99.99,,2013-03-20 13:22:00,
2013-03-20 06:32:00,57.0,21.0,-100.00,North,-999,-999.0,-999.0,24,-99.99,,,-99.99,,2013-03-20 13:32:00,
2013-03-20 06:42:00,57.0,21.0,-100.00,North,-999,-999.0,-999.0,24,-99.99,,,-99.99,,2013-03-20 13:42:00,
2013-03-20 06:53:00,57.0,21.0,-100.00,North,-999,-999.0,-999.0,24,-99.99,,,-99.99,,2013-03-20 13:53:00,
2013-03-20 07:02:00,56.0,21.0,-100.00,North,-999,-999.0,-999.0,25,-99.99,,,-99.99,,2013-03-20 14:02:00,
2013-03-20 07:12:00,-999.0,-99.9,-100.00,South,180,2.0,-999.0,-999,-99.99,,,-99.99,,2013-03-20 14:12:00,
2013-03-20 07:23:00,-999.0,-99.9,-100.00,South,180,2.0,-999.0,-999,-99.99,,,-99.99,,2013-03-20 14:23:00,
2013-03-20 07:32:00,57.0,21.0,-100.00,North,-999,-999.0,-999.0,24,-99.99,,,-99.99,,2013-03-20 14:32:00,
2013-03-20 07:43:00,-999.0,-99.9,-100.00,SW,219,3.0,-999.0,-999,-99.99,,,-99.99,,2013-03-20 14:43:00,
2013-03-20 07:53:00,-999.0,-99.9,-100.00,SW,219,3.0,-999.0,-999,-99.99,,,-99.99,,2013-03-20 14:53:00,
2013-03-20 08:03:00,-999.0,-99.9,-100.00,South,180,4.0,-999.0,-999,-99.99,,,-99.99,,2013-03-20 15:03:00,
2013-03-20 08:13:00,-999.0,-99.9,-100.00,South,185,6.0,-999.0,-999,-99.99,,,-99.99,,2013-03-20 15:13:00,
2013-03-20 08:22:00,-999.0,-99.9,-100.00,South,185,6.0,-999.0,-999,-99.99,,,-99.99,,2013-03-20 15:22:00,
2013-03-20 08:34:00,-999.0,-99.9,-100.00,South,191,7.0,-999.0,-999,-99.99,,,-99.99,,2013-03-20 15:34:00,
2013-03-20 08:44:00,-999.0,-99.9,-100.00,South,191,6.0,-999.0,-999,-99.99,,,-99.99,,2013-03-20 15:44:00,
2013-03-20 08:53:00,63.0,-99.9,-100.00,North,-999,-999.0,-999.0,-999,-99.99,,,-99.99,,2013-03-20 15:53:00,
2013-03-20 09:03:00,-999.0,-99.9,-100.00,South,174,5.0,-999.0,-999,-99.99,,,-99.99,,2013-03-20 16:03:00,
2013-03-20 09:13:00,-999.0,-99.9,-100.00,South,174,5.0,-999.0,-999,-99.99,,,-99.99,,2013-03-20 16:13:00,
2013-03-20 09:23:00,64.0,23.0,-100.00,North,-999,-999.0,-999.0,20,-99.99,,,-99.99,,2013-03-20 16:23:00,
2013-03-20 09:33:00,-999.0,-99.9,-100.00,SSW,208,3.0,-999.0,-999,-99.99,,,-99.99,,2013-03-20 16:33:00,
2013-03-20 09:43:00,-999.0,-99.9,-100.00,South,185,7.0,-999.0,-999,-99.99,,,-99.99,,2013-03-20 16:43:00,
2013-03-20 09:52:00,66.0,20.0,-100.00,South,180,9.0,-999.0,17,-99.99,,,-99.99,,2013-03-20 16:52:00,
2013-03-20 10:03:00,-999.0,-99.9,-100.00,SSW,208,9.0,-999.0,-999,-99.99,,,-99.99,,2013-03-20 17:03:00,
2013-03-20 10:12:00,-999.0,-99.9,-100.00,SSW,208,8.0,-999.0,-999,-99.99,,,-99.99,,2013-03-20 17:12:00,
2013-03-20 10:21:00,67.0,21.0,-100.00,North,-999,-999.0,-999.0,16,-99.99,,,-99.99,,2013-03-20 17:21:00,
2013-03-20 10:33:00,-999.0,-99.9,-100.00,SSW,196,13.0,-999.0,-999,-99.99,,,-99.99,,2013-03-20 17:33:00,
2013-03-20 10:42:00,-999.0,-99.9,-100.00,South,185,10.0,-999.0,-999,-99.99,,,-99.99,,2013-03-20 17:42:00,
2013-03-20 10:52:00,68.0,22.0,-100.00,North,-999,-999.0,-999.0,17,-99.99,,,-99.99,,2013-03-20 17:52:00,
2013-03-20 11:12:00,-999.0,-99.9,-100.00,SSE,163,11.0,-999.0,-999,-99.99,,,-99.99,,2013-03-20 18:12:00,
2013-03-20 11:22:00,67.0,-99.9,-100.00,South,180,10.0,-999.0,-999,-99.99,,,-99.99,,2013-03-20 18:22:00,
2013-03-20 11:34:00,67.0,-99.9,-100.00,South,180,10.0,-999.0,-999,-99.99,,,-99.99,,2013-03-20 18:34:00,
2013-03-20 11:42:00,69.0,23.0,-100.00,North,-999,-999.0,-999.0,17,-99.99,,,-99.99,,2013-03-20 18:42:00,
2013-03-20 11:53:00,-999.0,-99.9,-100.00,SSE,168,10.0,-999.0,-999,-99.99,,,-99.99,,2013-03-20 18:53:00,
2013-03-20 12:02:00,-999.0,-99.9,-100.00,South,191,11.0,-999.0,-999,-99.99,,,-99.99,,2013-03-20 19:02:00,
2013-03-20 12:12:00,-999.0,-99.9,-100.00,SSW,208,11.0,-999.0,16,-99.99,,,-99.99,,2013-03-20 19:12:00,
2013-03-20 12:23:00,-999.0,-99.9,-100.00,NW,309,12.0,-999.0,-999,-99.99,,,-99.99,,2013-03-20 19:23:00,
2013-03-20 12:33:00,-999.0,-99.9,-100.00,SW,225,13.0,-999.0,-999,-99.99,,,-99.99,,2013-03-20 19:33:00,
2013-03-20 12:42:00,70.0,24.0,-100.00,North,-999,-999.0,-999.0,17,-99.99,,,-99.99,,2013-03-20 19:42:00,
2013-03-20 12:53:00,-999.0,-99.9,-100.00,SW,219,11.0,-999.0,-999,-99.99,,,-99.99,,2013-03-20 19:53:00,
2013-03-20 13:02:00,-999.0,-99.9,-100.00,South,185,12.0,-999.0,-999,-99.99,,,-99.99,,2013-03-20 20:02:00,
2013-03-20 13:12:00,70.0,25.0,-100.00,North,-999,-999.0,-999.0,18,-99.99,,,-99.99,,2013-03-20 20:12:00,
2013-03-20 13:21:00,70.0,25.0,-100.00,North,-999,-999.0,-999.0,18,-99.99,,,-99.99,,2013-03-20 20:21:00,
2013-03-20 13:32:00,-999.0,-99.9,-100.00,West,281,9.0,-999.0,-999,-99.99,,,-99.99,,2013-03-20 20:32:00,
2013-03-20 13:43:00,-999.0,-99.9,-100.00,NNW,337,8.0,-999.0,-999,-99.99,,,-99.99,,2013-03-20 20:43:00,
2013-03-20 13:53:00,-999.0,-99.9,-100.00,NNW,337,8.0,-999.0,-999,-99.99,,,-99.99,,2013-03-20 20:53:00,
2013-03-20 14:02:00,-999.0,-99.9,-100.00,NNW,337,8.0,-999.0,-999,-99.99,,,-99.99,,2013-03-20 21:02:00,
2013-03-20 14:12:00,-999.0,-99.9,-100.00,South,191,10.0,-999.0,-999,-99.99,,,-99.99,,2013-03-20 21:12:00,
2013-03-20 14:23:00,-999.0,-99.9,-100.00,South,191,13.0,-999.0,-999,-99.99,,,-99.99,,2013-03-20 21:23:00,
2013-03-20 14:33:00,-999.0,-99.9,-100.00,SW,219,6.0,-999.0,-999,-99.99,,,-99.99,,2013-03-20 21:33:00,
2013-03-20 14:42:00,71.0,27.0,-100.00,North,-999,-999.0,-999.0,19,-99.99,,,-99.99,,2013-03-20 21:42:00,
2013-03-20 14:53:00,-999.0,-99.9,-100.00,West,270,9.0,-999.0,-999,-99.99,,,-99.99,,2013-03-20 21:53:00,
2013-03-20 15:03:00,-999.0,-99.9,-100.00,South,174,10.0,-999.0,-999,-99.99,,,-99.99,,2013-03-20 22:03:00,
2013-03-20 15:13:00,-999.0,-99.9,-100.00,SSE,163,12.0,-999.0,-999,-99.99,,,-99.99,,2013-03-20 22:13:00,
2013-03-20 15:23:00,-999.0,-99.9,-100.00,SSE,163,12.0,-999.0,-999,-99.99,,,-99.99,,2013-03-20 22:23:00,
2013-03-20 15:33:00,-999.0,-99.9,-100.00,SW,230,11.0,-999.0,-999,-99.99,,,-99.99,,2013-03-20 22:33:00,
2013-03-20 15:42:00,70.0,27.0,-100.00,North,-999,-999.0,-999.0,20,-99.99,,,-99.99,,2013-03-20 22:42:00,
2013-03-20 15:52:00,70.0,27.0,-100.00,North,-999,-999.0,-999.0,20,-99.99,,,-99.99,,2013-03-20 22:52:00,
2013-03-20 16:03:00,-999.0,-99.9,-100.00,SSW,196,9.0,-999.0,-999,-99.99,,,-99.99,,2013-03-20 23:03:00,
2013-03-20 16:12:00,71.0,27.0,-100.00,SSW,196,7.0,-999.0,19,-99.99,,,-99.99,,2013-03-20 23:12:00,
2013-03-20 16:23:00,-999.0,-99.9,-100.00,South,180,9.0,-999.0,-999,-99.99,,,-99.99,,2013-03-20 23:23:00,
2013-03-20 16:33:00,-999.0,-99.9,-100.00,South,180,9.0,-999.0,-999,-99.99,,,-99.99,,2013-03-20 23:33:00,
2013-03-20 16:43:00,-999.0,-99.9,-100.00,SSW,202,10.0,-999.0,-999,-99.99,,,-99.99,,2013-03-20 23:43:00,
2013-03-20 16:53:00,-999.0,-99.9,-100.00,SSW,202,10.0,-999.0,-999,-99.99,,,-99.99,,2013-03-20 23:53:00,
2013-03-20 17:03:00,-999.0,-99.9,-100.00,South,174,9.0,-999.0,-999,-99.99,,,-99.99,,2013-03-21 00:03:00,
2013-03-20 17:23:00,-999.0,-99.9,-100.00,SSW,202,11.0,-999.0,-999,-99.99,,,-99.99,,2013-03-21 00:23:00,
2013-03-20 17:32:00,70.0,28.0,-100.00,North,-999,-999.0,-999.0,21,-99.99,,,-99.99,,2013-03-21 00:32:00,
2013-03-20 17:43:00,-999.0,-99.9,-100.00,West,270,8.0,-999.0,-999,-99.99,,,-99.99,,2013-03-21 00:43:00,
2013-03-20 17:53:00,-999.0,-99.9,-100.00,West,270,8.0,-999.0,-999,-99.99,,,-99.99,,2013-03-21 00:53:00,
2013-03-20 18:02:00,69.0,28.0,-100.00,North,-999,-999.0,-999.0,21,-99.99,,,-99.99,,2013-03-21 01:02:00,
2013-03-20 18:12:00,-999.0,-99.9,-100.00,South,185,10.0,-999.0,-999,-99.99,,,-99.99,,2013-03-21 01:12:00,
2013-03-20 18:22:00,-999.0,-99.9,-100.00,South,185,10.0,-999.0,-999,-99.99,,,-99.99,,2013-03-21 01:22:00,
2013-03-20 18:32:00,68.0,29.0,-100.00,North,-999,-999.0,-999.0,22,-99.99,,,-99.99,,2013-03-21 01:32:00,
2013-03-20 18:42:00,68.0,29.0,-100.00,North,-999,-999.0,-999.0,22,-99.99,,,-99.99,,2013-03-21 01:42:00,
2013-03-20 18:52:00,68.0,29.0,-100.00,North,-999,-999.0,-999.0,22,-99.99,,,-99.99,,2013-03-21 01:52:00,
2013-03-20 19:02:00,68.0,29.0,-100.00,North,-999,-999.0,-999.0,23,-99.99,,,-99.99,,2013-03-21 02:02:00,
2013-03-20 19:13:00,-999.0,-99.9,-100.00,SSW,202,10.0,-999.0,-999,-99.99,,,-99.99,,2013-03-21 02:13:00,
2013-03-20 19:23:00,-999.0,-99.9,-100.00,SSW,202,10.0,-999.0,-999,-99.99,,,-99.99,,2013-03-21 02:23:00,
2013-03-20 19:33:00,67.0,-99.9,-100.00,North,-999,-999.0,-999.0,-999,-99.99,,,-99.99,,2013-03-21 02:33:00,
2013-03-20 19:42:00,67.0,-99.9,-100.00,North,-999,-999.0,-999.0,-999,-99.99,,,-99.99,,2013-03-21 02:42:00,
2013-03-20 19:52:00,67.0,-99.9,-100.00,North,-999,-999.0,-999.0,-999,-99.99,,,-99.99,,2013-03-21 02:52:00,
2013-03-20 20:03:00,-999.0,-99.9,-100.00,SSW,202,8.0,-999.0,-999,-99.99,,,-99.99,,2013-03-21 03:03:00,
2013-03-20 20:12:00,-999.0,-99.9,-100.00,SSW,202,10.0,-999.0,-999,-99.99,,,-99.99,,2013-03-21 03:12:00,
2013-03-20 20:22:00,-999.0,-99.9,-100.00,SSW,202,10.0,-999.0,-999,-99.99,,,-99.99,,2013-03-21 03:22:00,
2013-03-20 20:33:00,-999.0,-99.9,-100.00,SSW,202,10.0,-999.0,-999,-99.99,,,-99.99,,2013-03-21 03:33:00,
2013-03-20 20:43:00,-999.0,-99.9,-100.00,South,191,11.0,-999.0,-999,-99.99,,,-99.99,,2013-03-21 03:43:00,
2013-03-20 20:53:00,-999.0,-99.9,-100.00,SW,230,8.0,-999.0,-999,-99.99,,,-99.99,,2013-03-21 03:53:00,
2013-03-20 21:03:00,-999.0,-99.9,-100.00,South,174,8.0,-999.0,-999,-99.99,,,-99.99,,2013-03-21 04:03:00,
2013-03-20 21:13:00,-999.0,-99.9,-100.00,South,180,9.0,-999.0,-999,-99.99,,,-99.99,,2013-03-21 04:13:00,
2013-03-20 21:23:00,-999.0,-99.9,-100.00,South,185,9.0,-999.0,-999,-99.99,,,-99.99,,2013-03-21 04:23:00,
2013-03-20 21:33:00,-999.0,-99.9,-100.00,SSW,196,10.0,-999.0,-999,-99.99,,,-99.99,,2013-03-21 04:33:00,
2013-03-20 21:43:00,-999.0,-99.9,-100.00,SSE,168,9.0,-999.0,-999,-99.99,,,-99.99,,2013-03-21 04:43:00,
2013-03-20 21:53:00,-999.0,-99.9,-100.00,SSE,168,9.0,-999.0,-999,-99.99,,,-99.99,,2013-03-21 04:53:00,
2013-03-20 22:03:00,-999.0,-99.9,-100.00,SSW,196,9.0,-999.0,-999,-99.99,,,-99.99,,2013-03-21 05:03:00,
2013-03-20 22:13:00,-999.0,-99.9,-100.00,SSW,196,9.0,-999.0,-999,-99.99,,,-99.99,,2013-03-21 05:13:00,
2013-03-20 22:23:00,-999.0,-99.9,-100.00,South,174,8.0,-999.0,-999,-99.99,,,-99.99,,2013-03-21 05:23:00,
2013-03-20 22:33:00,-999.0,-99.9,-100.00,South,180,6.0,-999.0,-999,-99.99,,,-99.99,,2013-03-21 05:33:00,
2013-03-20 22:44:00,-999.0,-99.9,-100.00,SW,219,7.0,-999.0,-999,-99.99,,,-99.99,,2013-03-21 05:44:00,
2013-03-20 22:52:00,-999.0,-99.9,-100.00,SW,219,7.0,-999.0,-999,-99.99,,,-99.99,,2013-03-21 05:52:00,
2013-03-20 23:22:00,63.0,29.0,-100.00,North,-999,-999.0,-999.0,26,-99.99,,,-99.99,,2013-03-21 06:22:00,
2013-03-20 23:32:00,-999.0,-99.9,-100.00,SW,230,7.0,-999.0,-999,-99.99,,,-99.99,,2013-03-21 06:32:00,
2013-03-20 23:43:00,-999.0,-99.9,-100.00,South,174,12.0,-999.0,-999,-99.99,,,-99.99,,2013-03-21 06:43:00,
2013-03-20 23:52:00,64.0,30.0,-100.00,North,-999,-999.0,-999.0,26,-99.99,,,-99.99,,2013-03-21 06:52:00,